Time;durP1;ratioP1;P1;durP2;ratioP2;P2;SDS_P1;SDS_P2;PMS_P1;PMS_P2;Temp;Humidity;BMP_temperature;BMP_pressure;BME280_temperature;BME280_humidity;BME280_pressure;Samples;Min_cycle;Max_cycle;Signal;HPM_P1;HPM_P2
2022/02/18 00:01:09;;;;;;;28.60;20.97;;;;;;;13.46;73.56;101060.16;5048278;28;20120;-85
2022/02/18 00:03:37;;;;;;;27.30;20.00;;;;;;;13.23;73.52;101021.50;5050674;28;20499;-85
2022/02/18 00:06:06;;;;;;;21.23;16.90;;;;;;;13.43;73.44;101043.88;5046808;28;20475;-81
2022/02/18 00:08:34;;;;;;;20.63;17.70;;;;;;;13.53;73.88;101062.66;5051120;28;20055;-85
2022/02/18 00:11:01;;;;;;;22.60;17.73;;;;;;;13.56;73.42;101064.03;5051095;28;20131;-83
2022/02/18 00:13:28;;;;;;;25.70;16.60;;;;;;;13.42;73.58;101036.59;5043434;28;22030;-83
2022/02/18 00:15:55;;;;;;;22.77;17.63;;;;;;;13.27;73.72;101014.25;5048316;28;20127;-81
2022/02/18 00:18:22;;;;;;;33.00;18.97;;;;;;;13.55;73.61;101048.34;5051086;28;20140;-83
2022/02/18 00:20:48;;;;;;;28.97;19.60;;;;;;;13.38;73.58;101018.69;5049513;28;20041;-82
2022/02/18 00:23:18;;;;;;;24.02;18.95;;;;;;;13.43;73.66;101032.66;5049740;28;20053;-82
2022/02/18 00:25:45;;;;;;;20.33;18.30;;;;;;;13.47;73.56;101039.41;5054027;28;20072;-82
2022/02/18 00:28:12;;;;;;;18.47;16.57;;;;;;;13.34;73.56;101028.81;5049194;28;20127;-82
2022/02/18 00:30:39;;;;;;;17.87;16.07;;;;;;;13.33;73.69;101018.69;5046747;28;20045;-82
2022/02/18 00:33:06;;;;;;;15.93;14.33;;;;;;;13.35;73.57;101027.66;5053323;28;20460;-77
2022/02/18 00:35:33;;;;;;;26.37;18.10;;;;;;;13.28;73.61;101015.91;5027565;28;20140;-76
2022/02/18 00:38:02;;;;;;;21.13;17.13;;;;;;;13.37;73.70;101028.22;5051587;28;20052;-77
2022/02/18 00:40:30;;;;;;;24.33;19.63;;;;;;;13.32;73.76;101028.25;5048519;28;20091;-78
2022/02/18 00:42:57;;;;;;;25.73;18.17;;;;;;;13.33;73.75;101024.28;5049897;28;20051;-80
2022/02/18 00:45:24;;;;;;;25.83;17.40;;;;;;;13.28;73.67;100999.09;5049125;28;20079;-80
2022/02/18 00:47:51;;;;;;;25.73;20.07;;;;;;;13.21;73.86;100990.97;5053124;28;20136;-79
2022/02/18 00:50:20;;;;;;;25.47;18.63;;;;;;;13.35;73.81;101004.38;5056362;28;20235;-80
2022/02/18 00:52:47;;;;;;;21.63;17.70;;;;;;;13.27;73.94;100989.00;5050472;28;20132;-76
2022/02/18 00:55:14;;;;;;;26.90;18.63;;;;;;;13.31;73.83;100992.91;5043904;28;20537;-77
2022/02/18 00:57:42;;;;;;;21.87;18.90;;;;;;;13.24;73.82;100976.41;5046391;28;20407;-75
2022/02/18 01:00:13;;;;;;;21.10;18.87;;;;;;;13.14;73.93;100961.56;5053382;28;20135;-81
2022/02/18 01:02:40;;;;;;;21.45;18.45;;;;;;;13.19;74.14;100973.56;5051203;28;20194;-77
2022/02/18 01:05:07;;;;;;;20.17;17.37;;;;;;;13.14;74.40;100972.78;5049672;28;20068;-79
2022/02/18 01:07:35;;;;;;;18.87;17.07;;;;;;;13.12;74.42;100969.41;5042774;28;20052;-79
2022/02/18 01:10:04;;;;;;;22.60;17.93;;;;;;;13.13;74.37;100977.53;5045955;28;20135;-81
2022/02/18 01:12:31;;;;;;;27.13;19.37;;;;;;;13.13;74.30;100968.25;5044972;28;20603;-82
2022/02/18 01:14:58;;;;;;;21.83;18.27;;;;;;;13.16;74.34;100968.56;5043604;28;20083;-80
2022/02/18 01:17:24;;;;;;;24.53;19.43;;;;;;;13.20;73.97;100954.81;5040845;28;20072;-80
2022/02/18 01:19:51;;;;;;;27.07;18.10;;;;;;;13.41;73.59;100966.78;5041516;28;20076;-79
2022/02/18 01:22:18;;;;;;;21.47;16.10;;;;;;;13.19;73.79;100937.09;5048105;28;20152;-79
2022/02/18 01:24:45;;;;;;;19.03;17.00;;;;;;;13.40;73.78;100965.06;5041562;28;20069;-79
2022/02/18 01:27:12;;;;;;;25.30;17.70;;;;;;;13.41;73.88;100956.38;5047145;28;20061;-77
2022/02/18 01:29:41;;;;;;;20.73;18.40;;;;;;;13.49;73.76;100941.72;5047975;28;20123;-76
2022/02/18 01:32:09;;;;;;;21.63;17.08;;;;;;;13.32;73.87;100916.03;5042680;28;20080;-78
2022/02/18 01:34:37;;;;;;;26.13;18.87;;;;;;;13.47;73.78;100932.78;5046604;28;20137;-73
2022/02/18 01:37:04;;;;;;;22.37;17.20;;;;;;;13.47;73.73;100935.59;5049134;28;20120;-83
2022/02/18 01:39:32;;;;;;;22.70;18.83;;;;;;;13.34;73.70;100915.75;5048329;28;20068;-78
2022/02/18 01:41:59;;;;;;;27.13;19.33;;;;;;;13.42;73.62;100915.97;5049072;28;20076;-77
2022/02/18 01:44:45;;;;;;;26.70;19.33;;;;;;;13.41;73.64;100925.53;5046830;28;20469;-77
2022/02/18 01:47:21;;;;;;;22.20;16.27;;;;;;;13.35;73.79;100918.25;5069981;28;20025;-78
2022/02/18 01:49:53;;;;;;;19.50;15.10;;;;;;;13.26;73.99;100897.56;5073219;28;20049;-78
2022/02/18 01:52:26;;;;;;;17.37;14.73;;;;;;;13.36;73.94;100925.53;5073168;28;20028;-77
2022/02/18 01:54:53;;;;;;;18.60;15.67;;;;;;;13.31;74.13;100931.19;5064968;28;20039;-75
2022/02/18 01:57:20;;;;;;;18.87;16.90;;;;;;;13.14;74.10;100900.69;5072836;28;20037;-76
2022/02/18 01:59:47;;;;;;;18.20;16.37;;;;;;;13.30;74.19;100926.72;5075215;28;20037;-76
2022/02/18 02:02:13;;;;;;;17.90;14.57;;;;;;;13.30;74.18;100929.53;5072869;28;20049;-77
2022/02/18 02:04:44;;;;;;;16.17;14.10;;;;;;;13.35;74.18;100920.25;5068216;28;20052;-76
2022/02/18 02:07:12;;;;;;;15.63;14.07;;;;;;;13.37;73.85;100916.03;5065988;28;20081;-76
2022/02/18 02:09:39;;;;;;;19.03;17.03;;;;;;;13.39;73.87;100915.72;5047157;28;20076;-80
2022/02/18 02:12:06;;;;;;;21.70;14.33;;;;;;;13.37;73.54;100909.56;5051159;28;20076;-78
2022/02/18 02:14:33;;;;;;;18.03;15.77;;;;;;;13.47;73.67;100915.13;5047644;28;20139;-78
2022/02/18 02:16:59;;;;;;;18.60;14.83;;;;;;;13.26;73.56;100880.72;5049380;28;20389;-79
2022/02/18 02:19:27;;;;;;;19.73;16.03;;;;;;;13.49;73.45;100912.84;5050324;28;20041;-80
2022/02/18 02:21:55;;;;;;;20.97;16.77;;;;;;;13.46;73.57;100900.22;5046086;28;20172;-85
2022/02/18 02:24:22;;;;;;;17.80;14.37;;;;;;;13.44;73.42;100899.69;5049371;28;20065;-83
2022/02/18 02:26:50;;;;;;;17.23;13.57;;;;;;;13.51;73.46;100905.81;5047744;28;20057;-85
2022/02/18 02:29:17;;;;;;;21.73;15.67;;;;;;;13.56;73.35;100895.69;5059485;28;20049;-88
2022/02/18 02:31:44;;;;;;;16.93;15.03;;;;;;;13.42;73.74;100893.53;5061062;28;20073;-82
2022/02/18 02:34:11;;;;;;;18.80;14.67;;;;;;;13.32;73.81;100889.97;5069010;28;20045;-81
2022/02/18 02:36:38;;;;;;;15.67;14.13;;;;;;;13.16;73.92;100869.56;5065947;28;20095;-82
2022/02/18 02:39:05;;;;;;;20.23;16.37;;;;;;;13.17;73.96;100871.25;5066539;28;20045;-75
2022/02/18 02:41:32;;;;;;;22.63;16.73;;;;;;;13.34;73.76;100891.34;5044854;28;20061;-75
2022/02/18 02:43:59;;;;;;;17.67;14.23;;;;;;;13.30;73.79;100887.47;5036267;28;20126;-75
2022/02/18 02:46:26;;;;;;;19.40;16.37;;;;;;;13.33;73.81;100886.84;5042630;28;20055;-74
2022/02/18 02:48:56;;;;;;;27.67;17.23;;;;;;;13.20;73.66;100853.84;5045407;28;20071;-77
2022/02/18 02:51:23;;;;;;;16.63;14.43;;;;;;;13.38;73.75;100878.41;5050437;28;20045;-75
2022/02/18 02:53:49;;;;;;;17.77;15.57;;;;;;;13.36;73.85;100869.44;5048885;28;20135;-75
2022/02/18 02:56:16;;;;;;;19.23;15.73;;;;;;;13.33;73.52;100853.19;5052896;28;20131;-75
2022/02/18 02:58:44;;;;;;;19.23;16.43;;;;;;;13.40;73.59;100864.94;5052753;28;20073;-77
2022/02/18 03:01:11;;;;;;;19.77;16.40;;;;;;;13.31;73.63;100849.84;5053954;28;20060;-78
2022/02/18 03:03:38;;;;;;;23.33;17.20;;;;;;;13.10;73.76;100820.25;5051118;28;20124;-78
2022/02/18 03:06:05;;;;;;;15.50;14.00;;;;;;;13.23;73.87;100847.63;5054206;28;20498;-81
2022/02/18 03:08:31;;;;;;;17.63;14.43;;;;;;;13.18;74.05;100850.47;5053551;28;20057;-80
2022/02/18 03:11:17;;;;;;;18.70;15.80;;;;;;;13.17;74.09;100840.41;5053849;28;20132;-78
2022/02/18 03:13:46;;;;;;;20.83;18.27;;;;;;;12.98;74.36;100810.22;5049910;28;20048;-77
2022/02/18 03:16:14;;;;;;;19.40;14.20;;;;;;;13.10;74.02;100809.06;5049861;28;20140;-77
2022/02/18 03:18:43;;;;;;;14.50;12.83;;;;;;;13.22;74.18;100835.56;5050298;28;20705;-75
2022/02/18 03:21:10;;;;;;;14.30;12.80;;;;;;;13.21;74.25;100828.31;5053398;28;20047;-76
2022/02/18 03:23:38;;;;;;;19.80;14.87;;;;;;;13.04;74.09;100806.25;5050567;28;20124;-78
2022/02/18 03:26:07;;;;;;;17.13;15.43;;;;;;;13.18;74.23;100823.28;5054337;28;20081;-79
2022/02/18 03:28:34;;;;;;;15.05;13.50;;;;;;;12.94;74.41;100783.91;5043969;28;20107;-77
2022/02/18 03:31:03;;;;;;;18.70;15.83;;;;;;;13.14;74.01;100813.78;5051856;28;20634;-78
2022/02/18 03:33:30;;;;;;;17.17;15.00;;;;;;;13.29;74.03;100818.44;5051091;28;20066;-79
2022/02/18 03:35:58;;;;;;;15.53;13.87;;;;;;;13.13;74.01;100794.41;5052191;28;20077;-80
2022/02/18 03:38:25;;;;;;;16.77;12.57;;;;;;;13.29;73.93;100821.25;5047527;28;20077;-77
2022/02/18 03:40:52;;;;;;;20.30;15.73;;;;;;;13.33;73.87;100827.13;5047326;28;20156;-78
2022/02/18 03:43:20;;;;;;;17.23;15.50;;;;;;;13.40;73.79;100824.81;5049433;28;20071;-78
2022/02/18 03:45:47;;;;;;;18.33;15.07;;;;;;;13.26;73.87;100802.19;5052316;28;20044;-78
2022/02/18 03:48:14;;;;;;;16.97;14.90;;;;;;;13.41;73.70;100821.72;5053485;28;20135;-81
2022/02/18 03:50:41;;;;;;;18.80;14.53;;;;;;;13.42;73.76;100814.97;5051467;28;20059;-82
2022/02/18 03:53:08;;;;;;;14.30;13.03;;;;;;;13.39;73.80;100812.75;5047322;28;20135;-77
2022/02/18 03:55:35;;;;;;;16.73;15.10;;;;;;;13.27;73.87;100798.28;5053742;28;20136;-82
2022/02/18 03:58:03;;;;;;;25.47;14.83;;;;;;;13.19;73.54;100782.03;5051993;28;20143;-78
2022/02/18 04:00:30;;;;;;;15.83;14.03;;;;;;;13.29;74.04;100801.63;5052824;28;20207;-78
2022/02/18 04:03:11;;;;;;;19.35;14.48;;;;;;;13.30;73.99;100803.31;5050821;28;20098;-77
2022/02/18 04:05:42;;;;;;;16.93;14.53;;;;;;;13.14;73.90;100782.09;5046794;28;20049;-79
2022/02/18 04:08:09;;;;;;;14.53;12.90;;;;;;;13.27;73.97;100801.94;5052118;28;20064;-81
2022/02/18 04:10:36;;;;;;;16.47;14.13;;;;;;;13.40;73.87;100820.06;5053718;28;20095;-82
2022/02/18 04:13:04;;;;;;;15.17;13.73;;;;;;;13.21;73.67;100775.00;5054099;28;20124;-80
2022/02/18 04:15:31;;;;;;;15.00;13.53;;;;;;;13.50;73.70;100817.19;5043581;28;20123;-79
2022/02/18 04:17:57;;;;;;;15.03;13.53;;;;;;;13.58;73.41;100820.47;5053700;28;20128;-75
2022/02/18 04:20:25;;;;;;;15.77;13.53;;;;;;;13.56;73.60;100825.53;5050689;28;20203;-80
2022/02/18 04:23:12;;;;;;;14.50;13.07;;;;;;;13.56;73.38;100826.38;5050757;28;20048;-77
2022/02/18 04:25:41;;;;;;;13.50;12.30;;;;;;;13.46;73.48;100818.88;5052848;28;20049;-77
2022/02/18 04:28:08;;;;;;;14.13;12.83;;;;;;;13.30;73.57;100791.22;5074716;28;20025;-79
2022/02/18 04:30:35;;;;;;;14.10;12.63;;;;;;;13.38;73.54;100813.91;5078488;28;20041;-82
2022/02/18 04:33:02;;;;;;;12.60;11.33;;;;;;;13.42;73.57;100811.34;5066411;28;20087;-82
2022/02/18 04:35:31;;;;;;;12.57;11.47;;;;;;;12.87;73.55;100730.16;5061391;28;20041;-81
2022/02/18 04:37:58;;;;;;;13.30;11.93;;;;;;;13.43;73.61;100816.66;5062402;28;20048;-82
2022/02/18 04:40:26;;;;;;;11.80;10.80;;;;;;;13.28;73.71;100799.97;5059153;28;20137;-83
2022/02/18 04:42:52;;;;;;;11.10;10.27;;;;;;;13.31;74.05;100804.16;5057256;28;20056;-83
2022/02/18 04:45:19;;;;;;;11.53;10.50;;;;;;;13.20;74.09;100797.75;5059786;28;20056;-86
2022/02/18 04:47:46;;;;;;;10.67;9.87;;;;;;;13.31;74.10;100815.38;5049675;28;20144;-79
2022/02/18 04:50:13;;;;;;;11.07;10.27;;;;;;;13.28;74.34;100812.00;5044756;28;20077;-79
2022/02/18 04:52:40;;;;;;;12.07;11.07;;;;;;;13.24;74.33;100808.13;5052770;28;20045;-80
2022/02/18 04:55:07;;;;;;;12.20;11.00;;;;;;;13.08;74.45;100778.47;5054192;28;20083;-80
2022/02/18 04:57:35;;;;;;;11.47;10.47;;;;;;;13.24;74.51;100804.47;5054699;28;20110;-80
2022/02/18 05:00:04;;;;;;;10.50;9.70;;;;;;;13.22;74.86;100806.69;5053498;28;20049;-81
2022/02/18 05:02:31;;;;;;;10.40;9.63;;;;;;;13.25;74.70;100801.38;5050706;28;20060;-79
2022/02/18 05:04:59;;;;;;;10.73;9.97;;;;;;;13.30;74.54;100803.31;5045759;28;20036;-78
2022/02/18 05:07:26;;;;;;;10.60;9.60;;;;;;;13.33;74.71;100813.91;5052550;28;20132;-81
2022/02/18 05:09:53;;;;;;;10.97;10.07;;;;;;;13.36;74.47;100810.53;5051937;28;20080;-80
2022/02/18 05:12:19;;;;;;;11.50;10.50;;;;;;;13.27;74.23;100793.50;5045592;28;20053;-75
2022/02/18 05:14:48;;;;;;;10.67;9.70;;;;;;;13.32;74.70;100809.44;5037780;28;20171;-73
2022/02/18 05:17:15;;;;;;;10.48;9.55;;;;;;;13.09;74.47;100773.69;5048667;28;20116;-74
2022/02/18 05:19:42;;;;;;;11.73;10.83;;;;;;;13.23;74.44;100792.41;5052061;28;20076;-74
2022/02/18 05:22:09;;;;;;;10.47;9.77;;;;;;;12.93;74.69;100748.59;5046654;28;20132;-74
2022/02/18 05:24:37;;;;;;;10.83;10.03;;;;;;;13.19;74.88;100812.88;5044755;28;20132;-77
2022/02/18 05:27:05;;;;;;;12.53;11.43;;;;;;;13.18;74.77;100812.06;5044192;28;20045;-84
2022/02/18 05:29:32;;;;;;;11.67;10.97;;;;;;;13.10;74.65;100797.84;5050296;28;20082;-78
2022/02/18 05:32:00;;;;;;;12.43;11.37;;;;;;;13.10;74.89;100798.66;5058846;28;20049;-78
2022/02/18 05:34:27;;;;;;;12.13;11.33;;;;;;;13.08;75.16;100802.88;5052994;28;20132;-75
2022/02/18 05:36:53;;;;;;;11.63;10.83;;;;;;;13.04;75.06;100794.22;5050722;28;20136;-75
2022/02/18 05:39:20;;;;;;;12.30;11.47;;;;;;;13.11;75.43;100821.94;5049377;28;20076;-72
2022/02/18 05:41:47;;;;;;;12.27;11.47;;;;;;;13.11;75.46;100821.94;5049125;28;20139;-73
2022/02/18 05:44:14;;;;;;;12.47;11.70;;;;;;;12.87;75.74;100789.00;5040309;28;20135;-73
2022/02/18 05:46:41;;;;;;;12.33;11.57;;;;;;;13.08;75.67;100814.94;5045149;28;20145;-73
2022/02/18 05:49:08;;;;;;;12.77;11.87;;;;;;;13.17;75.45;100832.00;5050004;28;20128;-74
2022/02/18 05:51:36;;;;;;;12.30;11.50;;;;;;;13.20;75.29;100823.00;5042026;28;20072;-74
2022/02/18 05:54:04;;;;;;;12.43;11.63;;;;;;;13.26;75.42;100814.28;5047250;28;20096;-75
2022/02/18 05:56:31;;;;;;;13.87;12.77;;;;;;;12.99;75.41;100781.09;5048674;28;20049;-75
2022/02/18 05:58:59;;;;;;;13.97;12.87;;;;;;;13.24;75.40;100815.69;5043025;28;20072;-73
2022/02/18 06:01:26;;;;;;;13.60;12.60;;;;;;;13.27;75.53;100826.34;5049168;28;20088;-70
2022/02/18 06:03:53;;;;;;;13.13;11.90;;;;;;;13.24;75.58;100822.16;5047276;28;20144;-80
2022/02/18 06:06:19;;;;;;;13.73;12.57;;;;;;;13.28;75.61;100828.00;5055992;28;20076;-84
2022/02/18 06:08:46;;;;;;;13.43;12.47;;;;;;;13.28;75.42;100831.63;5048371;28;20140;-79
2022/02/18 06:11:13;;;;;;;13.40;12.37;;;;;;;13.20;75.39;100820.19;5047054;28;20073;-76
2022/02/18 06:13:41;;;;;;;14.33;13.33;;;;;;;13.20;75.37;100825.81;5044327;28;20447;-74
2022/02/18 06:16:08;;;;;;;13.93;12.97;;;;;;;13.11;75.50;100816.31;5044999;28;20071;-73
2022/02/18 06:18:34;;;;;;;13.80;12.90;;;;;;;13.21;75.58;100833.06;5045469;28;20055;-74
2022/02/18 06:21:03;;;;;;;13.83;12.90;;;;;;;13.20;75.57;100821.03;5042577;28;20045;-79
2022/02/18 06:23:31;;;;;;;5.50;3.50;;;;;;;13.25;75.50;100822.97;5045111;28;20114;-78
2022/02/18 06:25:57;;;;;;;6.27;4.10;;;;;;;13.16;75.65;100808.72;5049997;28;20048;-77
2022/02/18 06:28:24;;;;;;;6.60;4.53;;;;;;;13.26;75.67;100825.50;5049223;28;20099;-85
2022/02/18 06:30:51;;;;;;;15.30;4.80;;;;;;;13.08;76.02;100794.47;5054089;28;20135;-82
2022/02/18 06:33:18;;;;;;;5.97;4.13;;;;;;;13.10;76.23;100803.44;5051239;28;20072;-76
2022/02/18 06:35:45;;;;;;;8.27;3.93;;;;;;;13.20;76.38;100826.63;5050787;28;20466;-74
2022/02/18 06:38:12;;;;;;;7.60;4.77;;;;;;;13.26;76.18;100824.63;5048777;28;20531;-74
2022/02/18 06:40:43;;;;;;;8.83;4.57;;;;;;;13.24;76.06;100821.31;5057165;28;20136;-74
2022/02/18 06:43:10;;;;;;;15.73;14.53;;;;;;;13.30;76.34;100808.06;5049338;28;20079;-76
2022/02/18 06:45:37;;;;;;;9.17;5.73;;;;;;;13.47;76.24;100826.19;5049949;28;20508;-76
2022/02/18 06:48:05;;;;;;;7.63;4.87;;;;;;;13.54;76.12;100830.59;5050414;28;20127;-74
2022/02/18 06:50:32;;;;;;;7.07;4.57;;;;;;;13.56;76.12;100831.16;5044346;28;20059;-75
2022/02/18 06:52:58;;;;;;;6.47;4.17;;;;;;;13.58;76.19;100829.72;5040703;28;20147;-74
2022/02/18 06:55:25;;;;;;;8.10;4.47;;;;;;;13.62;76.14;100827.16;5043086;28;20068;-76
2022/02/18 06:57:54;;;;;;;7.13;4.47;;;;;;;13.58;76.05;100812.06;5066836;28;20049;-74
2022/02/18 07:00:23;;;;;;;9.13;4.90;;;;;;;13.67;76.07;100827.09;5070722;28;20048;-74
2022/02/18 07:02:49;;;;;;;5.57;3.60;;;;;;;13.57;76.17;100807.56;5048808;28;20052;-74
2022/02/18 07:05:16;;;;;;;6.60;4.03;;;;;;;13.62;76.18;100808.34;5048676;28;20106;-75
2022/02/18 07:07:44;;;;;;;7.43;4.20;;;;;;;13.64;76.16;100811.72;5044993;28;20083;-75
2022/02/18 07:10:13;;;;;;;8.80;4.30;;;;;;;13.67;76.20;100821.50;5049030;28;20049;-75
2022/02/18 07:12:41;;;;;;;8.37;5.00;;;;;;;13.64;76.21;100816.47;5049479;28;20077;-75
2022/02/18 07:15:09;;;;;;;8.43;4.23;;;;;;;13.64;76.32;100824.88;5045476;28;20041;-75
2022/02/18 07:17:38;;;;;;;6.60;4.07;;;;;;;13.65;76.13;100824.59;5050448;28;20048;-76
2022/02/18 07:20:08;;;;;;;8.47;4.13;;;;;;;13.59;76.20;100824.94;5051730;28;20454;-76
2022/02/18 07:22:36;;;;;;;;;;;;;;;13.57;76.48;100824.41;5049890;28;20113;-75
2022/02/18 07:25:10;;;;;;;5.13;3.73;;;;;;;13.60;76.33;100829.41;5044775;28;20020;-75
2022/02/18 07:27:38;;;;;;;7.70;4.00;;;;;;;13.50;76.51;100819.97;5029864;28;20052;-75
2022/02/18 07:30:05;;;;;;;4.70;3.33;;;;;;;13.50;76.47;100831.19;5047999;28;20091;-75
2022/02/18 07:32:32;;;;;;;6.13;3.50;;;;;;;13.57;76.71;100841.22;5048269;28;20072;-73
2022/02/18 07:35:00;;;;;;;6.67;4.00;;;;;;;13.64;76.60;100836.13;5048491;28;20037;-70
2022/02/18 07:37:26;;;;;;;5.10;3.10;;;;;;;13.33;76.37;100779.44;5053253;28;20095;-73
2022/02/18 07:39:53;;;;;;;7.50;3.20;;;;;;;13.62;76.58;100832.78;5042926;28;20377;-74
2022/02/18 07:42:23;;;;;;;9.23;2.97;;;;;;;13.54;76.53;100819.38;5044407;28;20512;-73
2022/02/18 07:44:51;;;;;;;5.83;3.30;;;;;;;13.67;76.61;100847.59;5050504;28;20420;-73
2022/02/18 07:47:18;;;;;;;7.43;3.57;;;;;;;13.67;76.86;100852.38;5042468;28;20044;-75
2022/02/18 07:49:50;;;;;;;6.50;3.33;;;;;;;13.56;76.61;100828.34;5039840;28;20068;-75
2022/02/18 07:52:20;;;;;;;7.93;3.80;;;;;;;13.55;76.80;100821.91;5040899;28;20518;-76
2022/02/18 07:54:47;;;;;;;;;;;;;;;13.66;76.83;100840.31;5037646;28;20040;-77
2022/02/18 07:57:14;;;;;;;7.00;2.97;;;;;;;13.47;76.76;100803.72;5043965;28;19935;-76
2022/02/18 07:59:41;;;;;;;7.17;3.80;;;;;;;13.70;76.96;100847.00;5029692;28;20495;-76
2022/02/18 08:02:08;;;;;;;6.43;3.90;;;;;;;13.64;76.74;100839.78;5041429;28;20135;-76
2022/02/18 08:04:35;;;;;;;3.77;2.67;;;;;;;13.74;76.75;100853.72;5045226;28;20307;-76
2022/02/18 08:07:09;;;;;;;6.23;3.23;;;;;;;13.82;76.78;100854.22;5049505;28;20041;-76
2022/02/18 08:09:36;;;;;;;8.87;3.03;;;;;;;13.83;76.61;100848.28;5036672;28;20081;-75
2022/02/18 08:12:03;;;;;;;5.20;3.50;;;;;;;13.86;77.05;100864.56;5042795;28;20140;-76
2022/02/18 08:14:31;;;;;;;10.00;3.87;;;;;;;13.84;76.98;100863.16;5048590;28;20041;-76
2022/02/18 08:16:59;;;;;;;5.33;3.60;;;;;;;13.68;77.22;100849.28;5042289;28;20133;-76
2022/02/18 08:19:25;;;;;;;6.23;4.27;;;;;;;13.66;77.32;100857.16;5045520;28;20052;-75
2022/02/18 08:21:52;;;;;;;7.20;4.17;;;;;;;13.57;77.01;100846.84;5041476;28;20480;-75
2022/02/18 08:24:19;;;;;;;8.13;4.67;;;;;;;13.67;77.28;100886.88;5046988;28;20083;-75
2022/02/18 08:26:48;;;;;;;8.70;4.53;;;;;;;13.61;77.21;100876.84;5043917;28;20223;-75
2022/02/18 08:29:23;;;;;;;6.77;4.10;;;;;;;13.58;77.25;100888.66;5048045;28;20459;-75
2022/02/18 08:31:51;;;;;;;10.43;5.87;;;;;;;13.62;77.24;100894.50;5043690;28;20087;-75
2022/02/18 08:34:19;;;;;;;7.87;4.43;;;;;;;13.57;77.30;100900.16;5034195;28;20172;-74
2022/02/18 08:36:46;;;;;;;9.30;5.33;;;;;;;13.60;77.36;100897.59;5041482;28;20057;-74
2022/02/18 08:39:13;;;;;;;11.03;6.40;;;;;;;13.58;77.58;100893.44;5051498;28;20132;-74
2022/02/18 08:41:41;;;;;;;9.77;5.60;;;;;;;13.61;77.55;100896.50;5048298;28;20563;-74
2022/02/18 08:44:08;;;;;;;11.03;6.20;;;;;;;13.64;77.46;100895.03;5045384;28;20468;-75
2022/02/18 08:46:36;;;;;;;7.87;4.67;;;;;;;13.50;77.85;100864.00;5038875;28;20185;-74
2022/02/18 08:49:08;;;;;;;11.47;5.37;;;;;;;13.54;77.67;100875.47;5042803;28;20565;-75
2022/02/18 08:51:35;;;;;;;11.10;6.43;;;;;;;13.56;77.90;100884.47;5044586;28;20041;-74
2022/02/18 08:54:02;;;;;;;11.90;7.23;;;;;;;13.61;77.89;100884.44;5041129;28;20128;-75
2022/02/18 08:56:29;;;;;;;9.50;6.00;;;;;;;13.81;78.00;100898.31;5044595;28;20135;-74
2022/02/18 08:58:57;;;;;;;8.50;5.33;;;;;;;14.11;78.08;100873.84;5042756;28;20140;-75
2022/02/18 09:01:27;;;;;;;8.43;5.20;;;;;;;14.72;77.95;100890.06;5045615;28;20144;-75
2022/02/18 09:03:54;;;;;;;10.43;5.70;;;;;;;15.14;77.67;100889.22;5042785;28;20125;-76
2022/02/18 09:06:22;;;;;;;8.88;5.50;;;;;;;15.55;77.37;100873.66;5047141;28;20140;-75
2022/02/18 09:08:48;;;;;;;11.20;6.15;;;;;;;15.85;77.19;100894.88;5040606;28;20166;-74
2022/02/18 09:11:18;;;;;;;10.30;5.60;;;;;;;15.79;77.00;100888.50;5041513;28;20128;-75
2022/02/18 09:13:45;;;;;;;9.63;6.22;;;;;;;15.41;76.61;100868.81;5038553;28;20498;-76
2022/02/18 09:16:12;;;;;;;8.57;5.55;;;;;;;15.51;75.99;100883.88;5045988;28;20071;-76
2022/02/18 09:18:39;;;;;;;9.52;5.32;;;;;;;15.75;75.73;100886.59;5046176;28;20113;-76
2022/02/18 09:21:07;;;;;;;7.78;5.50;;;;;;;16.19;75.35;100899.38;5041841;28;20160;-75
2022/02/18 09:23:53;;;;;;;7.35;5.15;;;;;;;16.71;74.86;100886.75;5038853;28;20055;-76
2022/02/18 09:26:23;;;;;;;7.13;4.60;;;;;;;16.94;73.64;100893.38;5047303;28;20136;-75
2022/02/18 09:28:50;;;;;;;6.40;4.60;;;;;;;16.67;73.80;100897.00;5044667;28;20088;-75
2022/02/18 09:31:17;;;;;;;6.47;4.63;;;;;;;16.92;73.97;100912.63;5060275;28;20037;-74
2022/02/18 09:33:44;;;;;;;7.65;5.57;;;;;;;17.29;73.20;100913.47;5070557;28;20693;-76
2022/02/18 09:36:13;;;;;;;9.63;5.22;;;;;;;17.82;72.41;100906.34;5055077;28;20085;-74
2022/02/18 09:38:41;;;;;;;9.15;4.97;;;;;;;18.17;71.61;100877.13;5047066;28;20076;-74
2022/02/18 09:41:09;;;;;;;7.97;4.57;;;;;;;18.80;71.34;100902.56;5039930;28;20052;-75
2022/02/18 09:43:39;;;;;;;5.90;4.45;;;;;;;19.25;71.26;100903.19;5038219;28;20091;-76
2022/02/18 09:46:06;;;;;;;;;;;;;;;19.50;71.47;100898.72;5043430;28;20131;-75
2022/02/18 09:48:35;;;;;;;5.20;3.97;;;;;;;19.86;70.81;100894.72;5044395;28;20012;-75
2022/02/18 09:51:02;;;;;;;10.50;4.20;;;;;;;20.19;69.93;100902.69;5038984;28;20106;-75
2022/02/18 09:53:31;;;;;;;15.80;7.80;;;;;;;20.48;69.14;100905.63;5043944;28;20132;-75
2022/02/18 09:56:14;;;;;;;8.27;4.50;;;;;;;20.92;69.03;100903.47;5040368;28;20060;-75
2022/02/18 09:58:43;;;;;;;9.43;4.88;;;;;;;21.08;67.52;100911.38;5043650;28;20049;-75
2022/02/18 10:01:15;;;;;;;6.82;4.13;;;;;;;21.26;67.81;100896.72;5050535;28;20131;-75
2022/02/18 10:03:42;;;;;;;8.95;4.57;;;;;;;21.46;65.87;100903.63;5042942;28;20111;-75
2022/02/18 10:06:10;;;;;;;8.07;4.32;;;;;;;21.51;64.98;100877.84;5049560;28;20120;-75
2022/02/18 10:09:03;;;;;;;5.72;4.18;;;;;;;21.70;64.87;100888.69;5054919;28;20103;-75
2022/02/18 10:11:51;;;;;;;6.55;3.75;;;;;;;21.82;63.40;100885.09;5049225;28;20202;-70
2022/02/18 10:14:18;;;;;;;12.80;4.55;;;;;;;21.79;63.27;100905.69;5076474;28;20059;-75
2022/02/18 10:16:45;;;;;;;10.98;5.13;;;;;;;21.16;63.75;100904.78;5074362;28;20033;-75
2022/02/18 10:19:13;;;;;;;7.13;4.22;;;;;;;20.53;64.22;100885.59;5072340;28;20040;-75
2022/02/18 10:21:42;;;;;;;6.18;3.15;;;;;;;20.69;63.52;100910.56;5068162;28;20044;-74
2022/02/18 10:24:12;;;;;;;6.63;3.03;;;;;;;20.64;62.82;100903.06;5073868;28;20029;-75
2022/02/18 10:26:41;;;;;;;7.90;2.50;;;;;;;20.54;62.80;100906.28;5074333;28;20043;-74
2022/02/18 10:29:09;;;;;;;6.93;2.92;;;;;;;20.19;62.90;100902.69;5078385;28;20041;-74
2022/02/18 10:31:37;;;;;;;6.70;3.13;;;;;;;19.76;63.10;100900.72;5073089;28;20034;-74
2022/02/18 10:34:06;;;;;;;5.90;2.88;;;;;;;19.50;63.37;100912.06;5062946;28;20119;-75
2022/02/18 10:36:39;;;;;;;13.05;3.00;;;;;;;19.15;63.40;100910.00;5049467;28;20123;-76
2022/02/18 10:39:41;;;;;;;15.18;2.92;;;;;;;18.76;64.10;100912.88;5051179;28;20057;-73
2022/02/18 10:42:08;;;;;;;4.88;2.08;;;;;;;18.51;63.55;100918.06;5040670;28;20140;-75
2022/02/18 10:44:35;;;;;;;6.75;2.50;;;;;;;18.30;63.65;100903.66;5042802;28;20536;-75
2022/02/18 10:47:06;;;;;;;5.80;1.80;;;;;;;18.00;63.50;100896.81;5046807;28;20080;-76
2022/02/18 10:49:43;;;;;;;3.65;1.90;;;;;;;17.83;63.66;100911.66;5045638;28;20470;-75
2022/02/18 10:52:20;;;;;;;4.10;2.00;;;;;;;17.48;64.36;100911.34;5043831;28;20044;-74
2022/02/18 10:54:49;;;;;;;3.30;1.60;;;;;;;17.37;64.43;100901.44;5051122;28;20111;-75
2022/02/18 10:57:20;;;;;;;3.63;1.50;;;;;;;17.47;65.09;100914.47;5046097;28;20076;-74
2022/02/18 10:59:49;;;;;;;6.63;2.15;;;;;;;17.48;65.13;100907.69;5046258;28;20053;-75
2022/02/18 11:02:45;;;;;;;8.30;1.20;;;;;;;17.47;64.99;100912.50;5045118;28;20136;-73
2022/02/18 11:05:30;;;;;;;4.97;1.98;;;;;;;17.42;64.98;100917.44;5045352;28;20457;-73
2022/02/18 11:07:57;;;;;;;2.47;1.23;;;;;;;17.42;64.88;100886.38;5048873;28;20045;-76
2022/02/18 11:10:28;;;;;;;3.60;1.67;;;;;;;17.67;64.48;100899.84;5043488;28;20122;-78
2022/02/18 11:12:55;;;;;;;4.75;1.33;;;;;;;17.77;64.37;100908.13;5044728;28;20057;-76
2022/02/18 11:15:23;;;;;;;8.35;1.60;;;;;;;17.72;64.37;100910.22;5047094;28;20191;-76
2022/02/18 11:17:51;;;;;;;4.93;1.30;;;;;;;17.66;64.31;100923.63;5041210;28;20530;-75
2022/02/18 11:20:18;;;;;;;4.13;1.50;;;;;;;17.47;64.58;100922.94;5044513;28;20147;-75
2022/02/18 11:22:45;;;;;;;8.98;1.70;;;;;;;17.27;64.97;100930.75;5042333;28;20567;-76